createdAt,value
2023-03-01T00:00:06.432Z,21.00
2023-03-01T00:02:34.379Z,20.92
2023-03-01T00:05:03.719Z,20.00
2023-03-01T00:07:31.735Z,20.23
2023-03-01T00:09:59.618Z,20.85
2023-03-01T00:12:28.743Z,19.83
2023-03-01T00:14:56.627Z,20.13
2023-03-01T00:17:24.517Z,22.27
2023-03-01T00:19:52.414Z,21.65
2023-03-01T00:22:21.637Z,20.13
2023-03-01T00:24:49.936Z,19.67
2023-03-01T00:27:17.852Z,19.85
2023-03-01T00:29:46.009Z,20.30
2023-03-01T00:32:14.397Z,20.63
2023-03-01T00:34:42.304Z,18.92
2023-03-01T00:37:10.172Z,20.67
2023-03-01T00:39:39.435Z,20.92
2023-03-01T00:42:07.329Z,20.45
2023-03-01T00:44:35.457Z,21.02
2023-03-01T00:47:03.397Z,20.40
2023-03-01T00:49:31.605Z,19.88
2023-03-01T00:51:59.574Z,20.25
2023-03-01T00:54:27.536Z,22.02
2023-03-01T00:56:56.822Z,21.23
2023-03-01T00:59:24.766Z,21.80
2023-03-01T01:01:52.690Z,20.60
2023-03-01T01:04:20.566Z,20.50
2023-03-01T01:06:48.769Z,20.38
2023-03-01T01:09:19.158Z,21.40
2023-03-01T01:11:48.314Z,20.63
2023-03-01T01:14:17.972Z,20.60
2023-03-01T01:16:45.938Z,21.35
2023-03-01T01:19:14.309Z,21.10
2023-03-01T01:21:44.104Z,20.23
2023-03-01T01:24:12.681Z,21.38
2023-03-01T01:26:40.652Z,21.83
2023-03-01T01:29:09.332Z,20.38
2023-03-01T01:31:40.463Z,20.25
2023-03-01T01:34:12.087Z,20.55
2023-03-01T01:36:39.979Z,20.58
2023-03-01T01:39:08.013Z,19.63
2023-03-01T01:41:35.913Z,20.55
2023-03-01T01:44:19.723Z,21.35
2023-03-01T01:46:52.650Z,20.98
2023-03-01T01:49:32.893Z,20.95
2023-03-01T01:52:09.665Z,21.45
2023-03-01T01:54:47.155Z,22.08
2023-03-01T01:57:20.102Z,22.52
2023-03-01T01:59:52.782Z,21.17
2023-03-01T02:02:22.841Z,22.90
2023-03-01T02:04:54.763Z,22.70
2023-03-01T02:07:24.765Z,22.27
2023-03-01T02:09:54.679Z,20.70
2023-03-01T02:12:25.528Z,20.88
2023-03-01T02:14:53.628Z,20.33
2023-03-01T02:17:23.598Z,20.83
2023-03-01T02:20:03.193Z,20.00
2023-03-01T02:22:33.913Z,21.55
2023-03-01T02:25:12.848Z,23.73
2023-03-01T02:27:48.472Z,21.55
2023-03-01T02:30:17.912Z,19.65
2023-03-01T02:32:45.412Z,20.67
2023-03-01T02:35:16.477Z,21.02
2023-03-01T02:37:46.073Z,21.95
2023-03-01T02:40:18.506Z,21.65
2023-03-01T02:42:51.890Z,20.58
2023-03-01T02:45:21.299Z,21.15
2023-03-01T02:47:49.305Z,19.90
2023-03-01T02:50:27.133Z,21.50
2023-03-01T02:52:59.672Z,18.83
2023-03-01T02:55:28.369Z,20.15
2023-03-01T02:57:57.798Z,19.83
2023-03-01T03:00:31.430Z,20.30
2023-03-01T03:02:59.409Z,19.58
2023-03-01T03:05:29.769Z,21.58
2023-03-01T03:07:58.768Z,20.17
2023-03-01T03:10:30.407Z,20.75
2023-03-01T03:13:00.182Z,21.10
2023-03-01T03:15:30.300Z,20.08
2023-03-01T03:17:59.424Z,20.65
2023-03-01T03:20:29.380Z,20.33
2023-03-01T03:22:59.222Z,21.92
2023-03-01T03:25:28.630Z,19.52
2023-03-01T03:27:58.961Z,20.35
2023-03-01T03:30:30.347Z,20.40
2023-03-01T03:32:59.167Z,21.75
2023-03-01T03:35:31.109Z,21.75
2023-03-01T03:38:07.136Z,22.75
2023-03-01T03:40:37.132Z,20.02
2023-03-01T03:43:07.211Z,22.05
2023-03-01T03:45:37.053Z,20.77
2023-03-01T03:48:07.382Z,20.33
2023-03-01T03:50:35.842Z,20.05
2023-03-01T03:53:04.809Z,20.52
2023-03-01T03:55:34.756Z,21.17
2023-03-01T03:58:07.726Z,20.85
2023-03-01T04:00:38.939Z,22.23
2023-03-01T04:03:07.298Z,22.27
2023-03-01T04:05:35.535Z,21.85
2023-03-01T04:08:08.107Z,19.85
2023-03-01T04:10:38.209Z,20.30
2023-03-01T04:13:06.876Z,20.75
2023-03-01T04:15:37.338Z,21.33
2023-03-01T04:18:06.058Z,21.08
2023-03-01T04:20:36.213Z,22.67
2023-03-01T04:23:11.622Z,21.77
2023-03-01T04:25:41.312Z,22.25
2023-03-01T04:28:09.792Z,23.48
2023-03-01T04:30:40.483Z,22.17
2023-03-01T04:33:10.278Z,22.33
2023-03-01T04:35:39.616Z,20.60
2023-03-01T04:38:07.996Z,21.25
2023-03-01T04:40:36.286Z,21.15
2023-03-01T04:43:05.472Z,22.73
2023-03-01T04:45:35.473Z,22.42
2023-03-01T04:48:05.630Z,21.75
2023-03-01T04:50:33.602Z,21.38
2023-03-01T04:53:01.472Z,22.00
2023-03-01T04:55:30.755Z,21.95
2023-03-01T04:57:58.796Z,24.75
2023-03-01T05:00:26.889Z,21.27
2023-03-01T05:02:56.264Z,21.95
2023-03-01T05:05:28.454Z,23.33
2023-03-01T05:07:58.141Z,22.23
2023-03-01T05:10:27.362Z,23.75
2023-03-01T05:12:55.341Z,23.35
2023-03-01T05:15:26.480Z,22.85
2023-03-01T05:17:55.328Z,22.60
2023-03-01T05:20:25.107Z,22.00
2023-03-01T05:22:53.908Z,23.05
2023-03-01T05:25:22.432Z,22.38
2023-03-01T05:27:50.639Z,22.55
2023-03-01T05:30:19.291Z,23.45
2023-03-01T05:32:49.217Z,23.70
2023-03-01T05:35:19.248Z,22.65
2023-03-01T05:37:50.302Z,23.17
2023-03-01T05:40:20.644Z,24.88
2023-03-01T05:42:50.420Z,23.17
2023-03-01T05:45:19.185Z,23.25
2023-03-01T05:47:49.061Z,25.25
2023-03-01T05:50:20.132Z,23.17
2023-03-01T05:52:51.061Z,23.02
2023-03-01T05:55:19.792Z,25.13
2023-03-01T05:57:47.999Z,24.98
2023-03-01T06:00:20.592Z,24.52
2023-03-01T06:02:48.475Z,24.00
2023-03-01T06:05:16.596Z,24.60
2023-03-01T06:07:44.935Z,27.13
2023-03-01T06:10:15.337Z,23.33
2023-03-01T06:12:44.691Z,22.65
2023-03-01T06:15:14.973Z,24.45
2023-03-01T06:17:45.387Z,22.58
2023-03-01T06:20:15.822Z,24.27
2023-03-01T06:22:44.345Z,24.73
2023-03-01T06:25:15.222Z,24.13
2023-03-01T06:27:43.987Z,22.88
2023-03-01T06:30:14.978Z,24.33
2023-03-01T06:32:43.846Z,23.55
2023-03-01T06:35:12.425Z,25.30
2023-03-01T06:37:40.990Z,24.50
2023-03-01T06:40:12.502Z,24.50
2023-03-01T06:42:44.245Z,22.33
2023-03-01T06:45:13.016Z,25.25
2023-03-01T06:47:41.078Z,22.40
2023-03-01T06:50:10.273Z,23.05
2023-03-01T06:52:38.414Z,22.58
2023-03-01T06:55:07.270Z,23.02
2023-03-01T06:57:35.215Z,23.25
2023-03-01T07:00:04.966Z,22.95
2023-03-01T07:02:33.066Z,23.55
2023-03-01T07:05:01.089Z,23.60
2023-03-01T07:07:29.150Z,24.13
2023-03-01T07:09:57.070Z,24.35
2023-03-01T07:12:24.975Z,22.70
2023-03-01T07:14:52.899Z,24.80
2023-03-01T07:17:22.149Z,23.67
2023-03-01T07:19:50.212Z,23.10
2023-03-01T07:22:18.138Z,24.02
2023-03-01T07:24:46.200Z,22.80
2023-03-01T07:27:16.343Z,25.50
2023-03-01T07:29:44.225Z,22.83
2023-03-01T07:32:12.810Z,23.48
2023-03-01T07:34:42.117Z,23.95
2023-03-01T07:37:10.283Z,22.77
2023-03-01T07:39:38.193Z,23.17
2023-03-01T07:42:06.116Z,24.63
2023-03-01T07:44:34.585Z,24.25
2023-03-01T07:47:02.500Z,23.33
2023-03-01T07:49:30.450Z,23.58
2023-03-01T07:51:59.681Z,24.15
2023-03-01T07:54:28.036Z,23.50
2023-03-01T07:56:56.354Z,23.90
2023-03-01T07:59:24.688Z,25.00
2023-03-01T08:01:52.604Z,23.58
2023-03-01T08:04:20.510Z,25.02
2023-03-01T08:06:48.447Z,23.48
2023-03-01T08:09:17.666Z,23.55
2023-03-01T08:11:45.578Z,24.70
2023-03-01T08:14:13.830Z,24.17
2023-03-01T08:16:41.928Z,22.63
2023-03-01T08:19:11.793Z,24.23
2023-03-01T08:21:39.974Z,23.98
2023-03-01T08:24:11.180Z,23.40
2023-03-01T08:26:40.450Z,23.60
2023-03-01T08:29:08.399Z,23.02
2023-03-01T08:31:38.368Z,23.65
2023-03-01T08:34:08.683Z,23.20
2023-03-01T08:36:39.274Z,22.52
2023-03-01T08:39:07.973Z,20.20
2023-03-01T08:41:35.847Z,20.58
2023-03-01T08:44:05.890Z,22.63
2023-03-01T08:46:37.919Z,24.23
2023-03-01T08:49:06.431Z,22.73
2023-03-01T08:51:37.656Z,22.77
2023-03-01T08:54:05.816Z,22.25
2023-03-01T08:56:33.981Z,21.67
2023-03-01T08:59:02.177Z,23.30
2023-03-01T09:01:31.814Z,20.17
2023-03-01T09:03:59.785Z,21.50
2023-03-01T09:06:27.994Z,20.67
2023-03-01T09:08:55.961Z,21.13
2023-03-01T09:11:24.335Z,21.15
2023-03-01T09:13:52.380Z,20.52
2023-03-01T09:16:22.636Z,20.98
2023-03-01T09:18:53.921Z,23.05
2023-03-01T09:21:38.676Z,22.23
2023-03-01T09:24:08.572Z,20.92
2023-03-01T09:26:36.463Z,21.52
2023-03-01T09:29:04.481Z,19.80
2023-03-01T09:31:32.496Z,21.55
2023-03-01T09:34:01.770Z,22.17
2023-03-01T09:36:30.124Z,20.95
2023-03-01T09:39:00.172Z,22.10
2023-03-01T09:41:44.358Z,22.17
2023-03-01T09:44:20.393Z,22.52
2023-03-01T09:46:48.595Z,21.33
2023-03-01T09:49:21.546Z,21.30
2023-03-01T09:51:59.694Z,22.88
2023-03-01T09:57:16.054Z,20.33
2023-03-01T10:00:05.441Z,23.27
2023-03-01T10:02:43.752Z,22.13
2023-03-01T10:05:27.470Z,20.83
2023-03-01T10:08:07.120Z,20.35
2023-03-01T10:10:38.413Z,20.02
2023-03-01T10:13:17.171Z,21.10
2023-03-01T10:15:49.575Z,20.42
2023-03-01T10:18:21.212Z,21.35
2023-03-01T10:20:55.313Z,21.73
2023-03-01T10:23:25.236Z,19.17
2023-03-01T10:26:06.304Z,19.42
2023-03-01T10:28:46.735Z,18.77
2023-03-01T10:31:17.185Z,18.77
2023-03-01T10:33:45.125Z,19.33
2023-03-01T10:36:14.517Z,20.20
2023-03-01T10:38:54.911Z,20.00
2023-03-01T10:41:25.309Z,19.13
2023-03-01T10:43:55.598Z,19.92
2023-03-01T10:46:28.487Z,18.23
2023-03-01T10:49:18.640Z,19.20
2023-03-01T10:51:50.209Z,19.55
2023-03-01T10:54:21.072Z,19.02
2023-03-01T10:56:51.378Z,18.77
2023-03-01T10:59:27.244Z,19.38
2023-03-01T11:02:25.133Z,19.67
2023-03-01T11:05:18.544Z,20.00
2023-03-01T11:07:52.709Z,18.60
2023-03-01T11:10:23.219Z,19.52
2023-03-01T11:12:52.688Z,18.67
2023-03-01T11:15:26.511Z,19.48
2023-03-01T11:18:03.147Z,20.40
2023-03-01T11:20:38.443Z,19.30
2023-03-01T11:23:12.800Z,18.90
2023-03-01T11:25:44.007Z,19.75
2023-03-01T11:28:16.259Z,19.33
2023-03-01T11:31:06.821Z,21.25
2023-03-01T11:33:43.338Z,20.38
2023-03-01T11:36:18.658Z,20.30
2023-03-01T11:38:49.322Z,20.92
2023-03-01T11:41:20.276Z,19.48
2023-03-01T11:43:54.387Z,18.88
2023-03-01T11:46:56.747Z,19.65
2023-03-01T11:49:41.791Z,18.85
2023-03-01T11:52:23.365Z,18.60
2023-03-01T11:55:07.181Z,18.92
2023-03-01T11:57:51.697Z,19.77
2023-03-01T12:00:38.582Z,19.52
2023-03-01T12:03:28.352Z,20.63
2023-03-01T12:06:25.041Z,19.38
2023-03-01T12:09:04.694Z,19.27
2023-03-01T12:11:46.529Z,19.67
2023-03-01T12:14:41.075Z,19.75
2023-03-01T12:17:39.486Z,19.08
2023-03-01T12:20:22.548Z,19.67
2023-03-01T12:23:21.047Z,18.92
2023-03-01T12:25:56.651Z,19.08
2023-03-01T12:28:45.758Z,19.15
2023-03-01T12:31:48.975Z,17.92
2023-03-01T12:34:37.343Z,17.85
2023-03-01T12:37:22.671Z,18.25
2023-03-01T12:40:03.968Z,17.83
2023-03-01T12:42:39.561Z,17.45
2023-03-01T12:45:27.660Z,17.95
2023-03-01T12:48:10.925Z,19.85
2023-03-01T12:50:43.339Z,17.27
2023-03-01T12:53:25.259Z,17.10
2023-03-01T12:55:55.967Z,18.05
2023-03-01T12:58:40.238Z,17.50
2023-03-01T13:01:24.982Z,17.15
2023-03-01T13:04:14.770Z,16.15
2023-03-01T13:06:52.599Z,15.75
2023-03-01T13:09:27.468Z,17.63
2023-03-01T13:11:55.436Z,16.80
2023-03-01T13:14:46.340Z,15.75
2023-03-01T13:17:42.770Z,16.42
2023-03-01T13:20:19.349Z,15.45
2023-03-01T13:22:54.799Z,15.20
2023-03-01T13:25:27.676Z,16.20
2023-03-01T13:28:39.159Z,15.43
2023-03-01T13:31:08.112Z,14.95
2023-03-01T13:33:47.720Z,14.95
2023-03-01T13:36:50.046Z,14.95
2023-03-01T13:39:36.653Z,15.13
2023-03-01T13:42:04.722Z,15.48
2023-03-01T13:44:36.980Z,15.65
2023-03-01T13:47:18.480Z,14.25
2023-03-01T13:49:51.527Z,14.68
2023-03-01T13:52:37.307Z,14.60
2023-03-01T13:55:08.171Z,15.45
2023-03-01T13:57:41.118Z,15.68
2023-03-01T14:00:34.802Z,15.07
2023-03-01T14:03:15.126Z,15.10
2023-03-01T14:05:46.296Z,14.27
2023-03-01T14:08:23.478Z,15.38
2023-03-01T14:11:04.170Z,14.67
2023-03-01T14:13:49.847Z,14.93
2023-03-01T14:16:31.515Z,16.35
2023-03-01T14:19:20.321Z,15.32
2023-03-01T14:22:06.337Z,17.77
2023-03-01T14:24:47.001Z,16.63
2023-03-01T14:27:16.120Z,17.73
2023-03-01T14:29:44.655Z,18.17
2023-03-01T14:32:14.549Z,17.67
2023-03-01T14:34:46.503Z,18.63
2023-03-01T14:37:22.468Z,18.65
2023-03-01T14:39:50.583Z,18.27
2023-03-01T14:42:19.529Z,19.02
2023-03-01T14:44:49.633Z,17.27
2023-03-01T14:47:27.323Z,19.05
2023-03-01T14:50:00.164Z,20.30
2023-03-01T14:52:35.757Z,18.77
2023-03-01T14:55:07.258Z,20.15
2023-03-01T14:57:35.346Z,19.65
2023-03-01T15:00:07.216Z,19.25
2023-03-01T15:02:36.247Z,19.92
2023-03-01T15:05:08.624Z,19.10
2023-03-01T15:07:42.458Z,20.27
2023-03-01T15:10:21.717Z,20.30
2023-03-01T15:12:49.786Z,20.27
2023-03-01T15:15:41.466Z,19.75
2023-03-01T15:18:19.141Z,21.45
2023-03-01T15:20:48.040Z,20.67
2023-03-01T15:23:24.066Z,20.50
2023-03-01T15:25:58.457Z,20.60
2023-03-01T15:28:28.574Z,20.67
2023-03-01T15:31:02.292Z,20.83
2023-03-01T15:33:37.014Z,21.33
2023-03-01T15:36:21.175Z,21.58
2023-03-01T15:38:56.409Z,22.73
2023-03-01T15:41:26.589Z,21.73
2023-03-01T15:43:56.581Z,21.45
2023-03-01T15:46:28.450Z,20.75
2023-03-01T15:49:00.055Z,21.42
2023-03-01T15:51:33.905Z,20.98
2023-03-01T15:54:07.067Z,22.48
2023-03-01T15:56:35.045Z,22.38
2023-03-01T15:59:04.324Z,22.13
2023-03-01T16:01:35.165Z,21.52
2023-03-01T16:04:03.227Z,21.42
2023-03-01T16:06:32.435Z,21.60
2023-03-01T16:09:00.460Z,22.10
2023-03-01T16:11:29.774Z,22.27
2023-03-01T16:13:57.795Z,23.08
2023-03-01T16:16:25.894Z,21.42
2023-03-01T16:18:55.715Z,21.30
2023-03-01T16:21:25.272Z,20.90
2023-03-01T16:23:54.096Z,22.23
2023-03-01T16:26:22.238Z,23.13
2023-03-01T16:28:51.478Z,23.70
2023-03-01T16:31:28.865Z,22.55
2023-03-01T16:33:58.009Z,22.38
2023-03-01T16:36:29.074Z,22.58
2023-03-01T16:38:57.537Z,21.45
2023-03-01T16:41:26.277Z,21.17
2023-03-01T16:43:55.545Z,21.80
2023-03-01T16:46:26.520Z,21.52
2023-03-01T16:48:54.838Z,21.13
2023-03-01T16:51:24.010Z,22.67
2023-03-01T16:53:53.067Z,22.63
2023-03-01T16:56:21.426Z,21.77
2023-03-01T16:58:49.386Z,23.17
2023-03-01T17:01:20.988Z,22.17
2023-03-01T17:03:51.114Z,21.75
2023-03-01T17:06:23.180Z,21.70
2023-03-01T17:08:51.180Z,23.10
2023-03-01T17:11:21.009Z,20.92
2023-03-01T17:13:49.398Z,22.17
2023-03-01T17:16:20.659Z,21.80
2023-03-01T17:18:48.999Z,22.40
2023-03-01T17:21:17.625Z,23.45
2023-03-01T17:23:46.884Z,21.40
2023-03-01T17:26:14.900Z,22.85
2023-03-01T17:28:43.864Z,21.95
2023-03-01T17:31:11.955Z,23.40
2023-03-01T17:33:41.217Z,22.25
2023-03-01T17:36:09.269Z,21.92
2023-03-01T17:38:37.661Z,22.25
2023-03-01T17:41:06.193Z,22.77
2023-03-01T17:43:35.188Z,22.25
2023-03-01T17:46:03.358Z,23.65
2023-03-01T17:48:31.387Z,22.83
2023-03-01T17:51:00.845Z,23.17
2023-03-01T17:53:28.736Z,23.38
2023-03-01T17:56:01.817Z,24.60
2023-03-01T17:58:30.087Z,26.40
2023-03-01T18:00:58.015Z,28.60
2023-03-01T18:03:25.989Z,26.70
2023-03-01T18:05:53.895Z,27.05
2023-03-01T18:08:23.120Z,25.98
2023-03-01T18:10:58.690Z,24.38
2023-03-01T18:13:26.682Z,25.45
2023-03-01T18:16:00.741Z,25.63
2023-03-01T18:18:28.997Z,23.38
2023-03-01T18:20:57.807Z,25.40
2023-03-01T18:23:27.654Z,24.55
2023-03-01T18:25:59.376Z,23.63
2023-03-01T18:28:27.813Z,23.58
2023-03-01T18:30:58.781Z,24.90
2023-03-01T18:33:27.202Z,24.92
2023-03-01T18:35:55.934Z,24.33
2023-03-01T18:38:24.039Z,24.00
2023-03-01T18:40:54.215Z,26.35
2023-03-01T18:43:22.284Z,25.52
2023-03-01T18:45:56.433Z,22.70
2023-03-01T18:48:24.384Z,25.65
2023-03-01T18:50:52.728Z,23.95
2023-03-01T18:53:20.670Z,25.05
2023-03-01T18:55:48.620Z,25.30
2023-03-01T18:58:17.945Z,23.60
2023-03-01T19:00:45.864Z,23.27
2023-03-01T19:03:13.788Z,22.40
2023-03-01T19:05:42.666Z,23.83
2023-03-01T19:08:10.512Z,22.35
2023-03-01T19:10:38.491Z,22.02
2023-03-01T19:13:06.370Z,23.42
2023-03-01T19:15:35.831Z,22.52
2023-03-01T19:18:05.554Z,23.17
2023-03-01T19:20:33.452Z,22.88
2023-03-01T19:23:01.384Z,22.55
2023-03-01T19:25:29.262Z,23.17
2023-03-01T19:27:57.133Z,24.45
2023-03-01T19:30:27.174Z,23.65
2023-03-01T19:32:56.437Z,24.05
2023-03-01T19:35:24.573Z,23.08
2023-03-01T19:37:52.478Z,26.90
2023-03-01T19:40:20.616Z,23.08
2023-03-01T19:42:48.479Z,23.48
2023-03-01T19:45:22.454Z,24.73
2023-03-01T19:47:53.764Z,23.17
2023-03-01T19:50:23.058Z,27.20
2023-03-01T19:52:51.357Z,25.90
2023-03-01T19:55:19.382Z,24.40
2023-03-01T19:57:47.265Z,24.50
2023-03-01T20:00:17.089Z,25.70
2023-03-01T20:02:45.243Z,23.80
2023-03-01T20:05:13.180Z,24.63
2023-03-01T20:07:44.481Z,24.52
2023-03-01T20:10:13.626Z,25.60
2023-03-01T20:12:41.600Z,26.02
2023-03-01T20:15:10.334Z,25.75
2023-03-01T20:17:38.488Z,26.73
2023-03-01T20:20:07.207Z,26.70
2023-03-01T20:22:35.074Z,25.42
2023-03-01T20:25:04.877Z,26.23
2023-03-01T20:27:33.123Z,26.67
2023-03-01T20:30:01.050Z,28.20
2023-03-01T20:32:29.557Z,27.23
2023-03-01T20:34:57.541Z,26.13
2023-03-01T20:37:25.450Z,24.98
2023-03-01T20:39:53.347Z,26.30
2023-03-01T20:42:22.604Z,25.45
2023-03-01T20:44:50.594Z,24.98
2023-03-01T20:47:20.398Z,27.75
2023-03-01T20:49:48.340Z,26.17
2023-03-01T20:52:16.250Z,25.42
2023-03-01T20:54:45.460Z,26.45
2023-03-01T20:57:13.390Z,27.13
2023-03-01T20:59:42.774Z,24.35
2023-03-01T21:02:11.525Z,26.00
2023-03-01T21:04:39.537Z,28.75
2023-03-01T21:07:07.501Z,26.77
2023-03-01T21:09:35.429Z,27.42
2023-03-01T21:12:04.196Z,26.33
2023-03-01T21:14:42.259Z,26.67
2023-03-01T21:19:44.920Z,26.23
2023-03-01T21:22:14.574Z,26.27
2023-03-01T21:24:42.764Z,27.65
2023-03-01T21:27:11.060Z,25.92
2023-03-01T21:29:40.245Z,26.50
2023-03-01T21:32:09.631Z,26.40
2023-03-01T21:34:39.749Z,26.27
2023-03-01T21:37:08.699Z,29.50
2023-03-01T21:39:36.634Z,26.92
2023-03-01T21:42:05.978Z,26.90
2023-03-01T21:44:34.390Z,26.17
2023-03-01T21:47:02.304Z,27.02
2023-03-01T21:49:30.246Z,25.73
2023-03-01T21:51:59.470Z,27.63
2023-03-01T21:54:27.825Z,28.52
2023-03-01T21:56:55.758Z,26.80
2023-03-01T21:59:25.225Z,28.10
2023-03-01T22:01:53.565Z,27.45
2023-03-01T22:04:24.538Z,28.92
2023-03-01T22:06:54.368Z,27.55
2023-03-01T22:09:24.915Z,29.42
2023-03-01T22:11:58.363Z,28.15
2023-03-01T22:14:26.514Z,29.55
2023-03-01T22:16:54.529Z,27.40
2023-03-01T22:19:23.103Z,28.60
2023-03-01T22:21:53.183Z,28.98
2023-03-01T22:24:24.984Z,29.77
2023-03-01T22:26:53.896Z,27.23
2023-03-01T22:29:23.963Z,30.42
2023-03-01T22:31:52.651Z,30.25
2023-03-01T22:34:21.017Z,27.25
2023-03-01T22:36:49.739Z,27.63
2023-03-01T22:39:19.547Z,27.92
2023-03-01T22:41:50.132Z,27.40
2023-03-01T22:44:20.170Z,27.75
2023-03-01T22:46:48.385Z,28.83
2023-03-01T22:49:16.436Z,29.75
2023-03-01T22:51:47.433Z,28.35
2023-03-01T22:54:16.293Z,29.35
2023-03-01T22:56:44.845Z,28.25
2023-03-01T22:59:15.859Z,27.40
2023-03-01T23:01:47.615Z,27.58
2023-03-01T23:04:16.048Z,25.83
2023-03-01T23:06:51.749Z,28.40
2023-03-01T23:09:22.659Z,28.77
2023-03-01T23:11:51.671Z,27.15
2023-03-01T23:14:22.134Z,27.73
2023-03-01T23:16:50.782Z,27.67
2023-03-01T23:19:18.925Z,28.50
2023-03-01T23:21:50.109Z,28.27
2023-03-01T23:24:19.766Z,27.40
2023-03-01T23:26:51.855Z,28.58
2023-03-01T23:29:21.177Z,27.02
2023-03-01T23:31:49.418Z,26.63
2023-03-01T23:34:17.454Z,28.70
2023-03-01T23:36:45.920Z,28.85
2023-03-01T23:39:15.112Z,28.27
2023-03-01T23:41:43.186Z,28.50
2023-03-01T23:44:16.056Z,28.50
2023-03-01T23:46:46.680Z,27.67
2023-03-01T23:49:17.175Z,27.15
2023-03-01T23:51:47.661Z,26.38
2023-03-01T23:54:18.286Z,27.88
2023-03-01T23:56:46.918Z,28.40
2023-03-01T23:59:17.124Z,29.05
